sensor_id;sensor_type;location;lat;lon;timestamp;temperature;humidity
11511;DHT22;5812;48.864;9.190;2022-12-13T00:02:12;-6.40;99.90
11511;DHT22;5812;48.864;9.190;2022-12-13T00:04:38;-6.30;99.90
11511;DHT22;5812;48.864;9.190;2022-12-13T00:07:03;-6.30;99.90
11511;DHT22;5812;48.864;9.190;2022-12-13T00:09:29;-6.10;99.90
11511;DHT22;5812;48.864;9.190;2022-12-13T00:11:55;-6.10;99.90
11511;DHT22;5812;48.864;9.190;2022-12-13T00:14:20;-6.20;99.90
11511;DHT22;5812;48.864;9.190;2022-12-13T00:16:47;-6.20;99.90
11511;DHT22;5812;48.864;9.190;2022-12-13T00:19:13;-6.20;99.90
11511;DHT22;5812;48.864;9.190;2022-12-13T00:21:39;-6.30;99.90
11511;DHT22;5812;48.864;9.190;2022-12-13T00:24:06;-6.50;99.90
11511;DHT22;5812;48.864;9.190;2022-12-13T00:26:32;-6.60;99.90
11511;DHT22;5812;48.864;9.190;2022-12-13T00:29:00;-6.60;99.90
11511;DHT22;5812;48.864;9.190;2022-12-13T00:31:26;-6.60;99.90
11511;DHT22;5812;48.864;9.190;2022-12-13T00:33:51;-6.60;99.90
11511;DHT22;5812;48.864;9.190;2022-12-13T00:36:17;-6.60;99.90
11511;DHT22;5812;48.864;9.190;2022-12-13T00:38:43;-6.60;99.90
11511;DHT22;5812;48.864;9.190;2022-12-13T00:41:13;-6.60;99.90
11511;DHT22;5812;48.864;9.190;2022-12-13T00:43:40;-6.60;99.90
11511;DHT22;5812;48.864;9.190;2022-12-13T00:46:10;-6.70;99.90
11511;DHT22;5812;48.864;9.190;2022-12-13T00:48:37;-6.70;99.90
11511;DHT22;5812;48.864;9.190;2022-12-13T00:51:07;-6.60;99.90
11511;DHT22;5812;48.864;9.190;2022-12-13T00:53:33;-6.60;99.90
11511;DHT22;5812;48.864;9.190;2022-12-13T00:55:59;-6.60;99.90
11511;DHT22;5812;48.864;9.190;2022-12-13T00:58:24;-6.60;99.90
11511;DHT22;5812;48.864;9.190;2022-12-13T01:00:50;-6.80;99.90
11511;DHT22;5812;48.864;9.190;2022-12-13T01:03:16;-6.80;99.90
11511;DHT22;5812;48.864;9.190;2022-12-13T01:05:50;-6.80;99.90
11511;DHT22;5812;48.864;9.190;2022-12-13T01:08:16;-6.90;99.90
11511;DHT22;5812;48.864;9.190;2022-12-13T01:10:45;-6.90;99.90
11511;DHT22;5812;48.864;9.190;2022-12-13T01:13:12;-6.90;99.90
11511;DHT22;5812;48.864;9.190;2022-12-13T01:15:43;-6.90;99.90
11511;DHT22;5812;48.864;9.190;2022-12-13T01:18:10;-7.00;99.90
11511;DHT22;5812;48.864;9.190;2022-12-13T01:20:36;-7.10;99.90
11511;DHT22;5812;48.864;9.190;2022-12-13T01:23:03;-7.10;99.90
11511;DHT22;5812;48.864;9.190;2022-12-13T01:25:28;-7.10;99.90
11511;DHT22;5812;48.864;9.190;2022-12-13T01:27:54;-7.10;99.90
11511;DHT22;5812;48.864;9.190;2022-12-13T01:30:20;-7.10;99.90
11511;DHT22;5812;48.864;9.190;2022-12-13T01:32:45;-7.10;99.90
11511;DHT22;5812;48.864;9.190;2022-12-13T01:35:11;-7.10;99.90
11511;DHT22;5812;48.864;9.190;2022-12-13T01:37:38;-7.10;99.90
11511;DHT22;5812;48.864;9.190;2022-12-13T01:40:04;-7.20;99.90
11511;DHT22;5812;48.864;9.190;2022-12-13T01:42:30;-7.20;99.90
11511;DHT22;5812;48.864;9.190;2022-12-13T01:44:57;-7.10;99.90
11511;DHT22;5812;48.864;9.190;2022-12-13T01:47:35;-7.00;99.90
11511;DHT22;5812;48.864;9.190;2022-12-13T01:50:17;-7.00;99.90
11511;DHT22;5812;48.864;9.190;2022-12-13T01:52:46;-6.90;99.90
11511;DHT22;5812;48.864;9.190;2022-12-13T01:55:14;-6.90;99.90
11511;DHT22;5812;48.864;9.190;2022-12-13T01:57:43;-6.80;99.90
11511;DHT22;5812;48.864;9.190;2022-12-13T02:00:10;-6.70;99.90
11511;DHT22;5812;48.864;9.190;2022-12-13T02:02:37;-6.70;99.90
11511;DHT22;5812;48.864;9.190;2022-12-13T02:07:56;-6.70;99.90
11511;DHT22;5812;48.864;9.190;2022-12-13T02:10:22;-6.70;99.90
11511;DHT22;5812;48.864;9.190;2022-12-13T02:12:48;-6.70;99.90
11511;DHT22;5812;48.864;9.190;2022-12-13T02:15:16;-6.70;99.90
11511;DHT22;5812;48.864;9.190;2022-12-13T02:21:02;-6.70;99.90
11511;DHT22;5812;48.864;9.190;2022-12-13T02:24:11;-6.70;99.90
11511;DHT22;5812;48.864;9.190;2022-12-13T02:26:52;-6.70;99.90
11511;DHT22;5812;48.864;9.190;2022-12-13T02:34:53;-6.80;99.90
11511;DHT22;5812;48.864;9.190;2022-12-13T02:37:22;-6.70;99.90
11511;DHT22;5812;48.864;9.190;2022-12-13T02:40:31;-6.80;99.90
11511;DHT22;5812;48.864;9.190;2022-12-13T02:43:07;-6.70;99.90
11511;DHT22;5812;48.864;9.190;2022-12-13T02:45:48;-6.80;99.90
11511;DHT22;5812;48.864;9.190;2022-12-13T02:48:19;-6.90;99.90
11511;DHT22;5812;48.864;9.190;2022-12-13T02:50:46;-6.80;99.90
11511;DHT22;5812;48.864;9.190;2022-12-13T02:53:13;-6.90;99.90
11511;DHT22;5812;48.864;9.190;2022-12-13T02:55:40;-7.00;99.90
11511;DHT22;5812;48.864;9.190;2022-12-13T02:58:06;-7.10;99.90
11511;DHT22;5812;48.864;9.190;2022-12-13T03:08:58;-7.10;99.90
11511;DHT22;5812;48.864;9.190;2022-12-13T03:11:49;-7.20;99.90
11511;DHT22;5812;48.864;9.190;2022-12-13T03:14:40;-7.10;99.90
11511;DHT22;5812;48.864;9.190;2022-12-13T03:17:12;-7.10;99.90
11511;DHT22;5812;48.864;9.190;2022-12-13T03:19:39;-7.10;99.90
11511;DHT22;5812;48.864;9.190;2022-12-13T03:22:05;-7.30;99.90
11511;DHT22;5812;48.864;9.190;2022-12-13T03:24:31;-7.30;99.90
11511;DHT22;5812;48.864;9.190;2022-12-13T03:26:57;-7.40;99.90
11511;DHT22;5812;48.864;9.190;2022-12-13T03:29:22;-7.30;99.90
11511;DHT22;5812;48.864;9.190;2022-12-13T03:31:48;-7.30;99.90
11511;DHT22;5812;48.864;9.190;2022-12-13T03:34:14;-7.40;99.90
11511;DHT22;5812;48.864;9.190;2022-12-13T03:36:39;-7.40;99.90
11511;DHT22;5812;48.864;9.190;2022-12-13T03:39:05;-7.40;99.90
11511;DHT22;5812;48.864;9.190;2022-12-13T03:41:31;-7.40;99.90
11511;DHT22;5812;48.864;9.190;2022-12-13T03:44:03;-7.50;99.90
11511;DHT22;5812;48.864;9.190;2022-12-13T03:46:29;-7.60;99.90
11511;DHT22;5812;48.864;9.190;2022-12-13T03:48:54;-7.40;99.90
11511;DHT22;5812;48.864;9.190;2022-12-13T03:51:20;-7.40;99.90
11511;DHT22;5812;48.864;9.190;2022-12-13T03:53:46;-7.30;99.90
11511;DHT22;5812;48.864;9.190;2022-12-13T03:56:11;-7.30;99.90
11511;DHT22;5812;48.864;9.190;2022-12-13T03:58:37;-7.40;99.90
11511;DHT22;5812;48.864;9.190;2022-12-13T04:01:10;-7.50;99.90
11511;DHT22;5812;48.864;9.190;2022-12-13T04:03:37;-7.60;99.90
11511;DHT22;5812;48.864;9.190;2022-12-13T04:06:04;-7.60;99.90
11511;DHT22;5812;48.864;9.190;2022-12-13T04:08:30;-7.60;99.90
11511;DHT22;5812;48.864;9.190;2022-12-13T04:10:56;-7.70;99.90
11511;DHT22;5812;48.864;9.190;2022-12-13T04:13:21;-7.70;99.90
11511;DHT22;5812;48.864;9.190;2022-12-13T04:16:00;-7.60;99.90
11511;DHT22;5812;48.864;9.190;2022-12-13T04:18:26;-7.60;99.90
11511;DHT22;5812;48.864;9.190;2022-12-13T04:20:52;-7.70;99.90
11511;DHT22;5812;48.864;9.190;2022-12-13T04:23:18;-7.90;99.90
11511;DHT22;5812;48.864;9.190;2022-12-13T04:25:44;-7.90;99.90
11511;DHT22;5812;48.864;9.190;2022-12-13T04:28:09;-8.00;99.90
11511;DHT22;5812;48.864;9.190;2022-12-13T04:30:35;-8.10;99.90
11511;DHT22;5812;48.864;9.190;2022-12-13T04:33:01;-8.10;99.90
11511;DHT22;5812;48.864;9.190;2022-12-13T04:35:27;-8.10;99.90
11511;DHT22;5812;48.864;9.190;2022-12-13T04:37:53;-8.10;99.90
11511;DHT22;5812;48.864;9.190;2022-12-13T04:40:19;-8.10;99.90
11511;DHT22;5812;48.864;9.190;2022-12-13T04:42:44;-8.20;99.90
11511;DHT22;5812;48.864;9.190;2022-12-13T04:45:17;-8.10;99.90
11511;DHT22;5812;48.864;9.190;2022-12-13T04:47:43;-8.10;99.90
11511;DHT22;5812;48.864;9.190;2022-12-13T04:50:09;-8.20;99.90
11511;DHT22;5812;48.864;9.190;2022-12-13T04:52:34;-8.20;99.90
11511;DHT22;5812;48.864;9.190;2022-12-13T04:55:01;-8.20;99.90
11511;DHT22;5812;48.864;9.190;2022-12-13T04:57:27;-8.30;99.90
11511;DHT22;5812;48.864;9.190;2022-12-13T04:59:53;-8.30;99.90
11511;DHT22;5812;48.864;9.190;2022-12-13T05:02:18;-8.20;99.90
11511;DHT22;5812;48.864;9.190;2022-12-13T05:04:44;-8.20;99.90
11511;DHT22;5812;48.864;9.190;2022-12-13T05:07:10;-8.10;99.90
11511;DHT22;5812;48.864;9.190;2022-12-13T05:09:36;-8.20;99.90
11511;DHT22;5812;48.864;9.190;2022-12-13T05:12:01;-8.20;99.90
11511;DHT22;5812;48.864;9.190;2022-12-13T05:14:28;-8.20;99.90
11511;DHT22;5812;48.864;9.190;2022-12-13T05:16:54;-8.20;99.90
11511;DHT22;5812;48.864;9.190;2022-12-13T05:19:19;-8.20;99.90
11511;DHT22;5812;48.864;9.190;2022-12-13T05:21:45;-8.20;99.90
11511;DHT22;5812;48.864;9.190;2022-12-13T05:24:10;-8.30;99.90
11511;DHT22;5812;48.864;9.190;2022-12-13T05:26:36;-8.30;99.90
11511;DHT22;5812;48.864;9.190;2022-12-13T05:29:02;-8.20;99.90
11511;DHT22;5812;48.864;9.190;2022-12-13T05:31:27;-8.30;99.90
11511;DHT22;5812;48.864;9.190;2022-12-13T05:33:53;-8.30;99.90
11511;DHT22;5812;48.864;9.190;2022-12-13T05:36:19;-8.40;99.90
11511;DHT22;5812;48.864;9.190;2022-12-13T05:38:46;-8.30;99.90
11511;DHT22;5812;48.864;9.190;2022-12-13T05:41:15;-8.20;99.90
11511;DHT22;5812;48.864;9.190;2022-12-13T05:43:41;-8.20;99.90
11511;DHT22;5812;48.864;9.190;2022-12-13T05:46:07;-8.10;99.90
11511;DHT22;5812;48.864;9.190;2022-12-13T05:48:32;-8.10;99.90
11511;DHT22;5812;48.864;9.190;2022-12-13T05:50:58;-8.10;99.90
11511;DHT22;5812;48.864;9.190;2022-12-13T05:53:23;-8.20;99.90
11511;DHT22;5812;48.864;9.190;2022-12-13T05:55:49;-8.30;99.90
11511;DHT22;5812;48.864;9.190;2022-12-13T05:58:15;-8.40;99.90
11511;DHT22;5812;48.864;9.190;2022-12-13T06:00:42;-8.40;99.90
11511;DHT22;5812;48.864;9.190;2022-12-13T06:03:07;-8.40;99.90
11511;DHT22;5812;48.864;9.190;2022-12-13T06:05:33;-8.40;99.90
11511;DHT22;5812;48.864;9.190;2022-12-13T06:07:59;-8.30;99.90
11511;DHT22;5812;48.864;9.190;2022-12-13T06:10:26;-8.30;99.90
11511;DHT22;5812;48.864;9.190;2022-12-13T06:12:51;-8.20;99.90
11511;DHT22;5812;48.864;9.190;2022-12-13T06:15:17;-8.30;99.90
11511;DHT22;5812;48.864;9.190;2022-12-13T06:17:42;-8.40;99.90
11511;DHT22;5812;48.864;9.190;2022-12-13T06:20:08;-8.30;99.90
11511;DHT22;5812;48.864;9.190;2022-12-13T06:22:34;-8.40;99.90
11511;DHT22;5812;48.864;9.190;2022-12-13T06:25:00;-8.30;99.90
11511;DHT22;5812;48.864;9.190;2022-12-13T06:27:26;-8.40;99.90
11511;DHT22;5812;48.864;9.190;2022-12-13T06:29:52;-8.30;99.90
11511;DHT22;5812;48.864;9.190;2022-12-13T06:32:17;-8.10;99.90
11511;DHT22;5812;48.864;9.190;2022-12-13T06:34:43;-8.10;99.90
11511;DHT22;5812;48.864;9.190;2022-12-13T06:37:11;-8.20;99.90
11511;DHT22;5812;48.864;9.190;2022-12-13T06:39:38;-8.30;99.90
11511;DHT22;5812;48.864;9.190;2022-12-13T06:42:05;-8.30;99.90
11511;DHT22;5812;48.864;9.190;2022-12-13T06:44:31;-8.40;99.90
11511;DHT22;5812;48.864;9.190;2022-12-13T06:46:57;-8.30;99.90
11511;DHT22;5812;48.864;9.190;2022-12-13T06:49:23;-8.40;99.90
11511;DHT22;5812;48.864;9.190;2022-12-13T06:51:49;-8.40;99.90
11511;DHT22;5812;48.864;9.190;2022-12-13T06:54:15;-8.40;99.90
11511;DHT22;5812;48.864;9.190;2022-12-13T06:56:40;-8.40;99.90
11511;DHT22;5812;48.864;9.190;2022-12-13T06:59:06;-8.30;99.90
11511;DHT22;5812;48.864;9.190;2022-12-13T07:01:31;-8.20;99.90
11511;DHT22;5812;48.864;9.190;2022-12-13T07:03:57;-8.20;99.90
11511;DHT22;5812;48.864;9.190;2022-12-13T07:06:24;-8.30;99.90
11511;DHT22;5812;48.864;9.190;2022-12-13T07:08:52;-8.20;99.90
11511;DHT22;5812;48.864;9.190;2022-12-13T07:11:23;-8.30;99.90
11511;DHT22;5812;48.864;9.190;2022-12-13T07:13:50;-8.20;99.90
11511;DHT22;5812;48.864;9.190;2022-12-13T07:16:16;-8.20;99.90
11511;DHT22;5812;48.864;9.190;2022-12-13T07:18:42;-8.10;99.90
11511;DHT22;5812;48.864;9.190;2022-12-13T07:21:09;-8.00;99.90
11511;DHT22;5812;48.864;9.190;2022-12-13T07:23:36;-7.90;99.90
11511;DHT22;5812;48.864;9.190;2022-12-13T07:26:03;-7.90;99.90
11511;DHT22;5812;48.864;9.190;2022-12-13T07:28:31;-7.80;99.90
11511;DHT22;5812;48.864;9.190;2022-12-13T07:31:00;-7.80;99.90
11511;DHT22;5812;48.864;9.190;2022-12-13T07:33:27;-7.80;99.90
11511;DHT22;5812;48.864;9.190;2022-12-13T07:36:05;-7.70;99.90
11511;DHT22;5812;48.864;9.190;2022-12-13T07:38:35;-7.70;99.90
11511;DHT22;5812;48.864;9.190;2022-12-13T07:41:01;-7.60;99.90
11511;DHT22;5812;48.864;9.190;2022-12-13T07:43:27;-7.60;99.90
11511;DHT22;5812;48.864;9.190;2022-12-13T07:45:53;-7.50;99.90
11511;DHT22;5812;48.864;9.190;2022-12-13T07:48:22;-7.60;99.90
11511;DHT22;5812;48.864;9.190;2022-12-13T07:50:47;-7.60;99.90
11511;DHT22;5812;48.864;9.190;2022-12-13T07:53:13;-7.60;99.90
11511;DHT22;5812;48.864;9.190;2022-12-13T07:55:39;-7.50;99.90
11511;DHT22;5812;48.864;9.190;2022-12-13T07:58:10;-7.40;99.90
11511;DHT22;5812;48.864;9.190;2022-12-13T08:00:41;-7.30;99.90
11511;DHT22;5812;48.864;9.190;2022-12-13T08:03:07;-7.20;99.90
11511;DHT22;5812;48.864;9.190;2022-12-13T08:05:33;-7.20;99.90
11511;DHT22;5812;48.864;9.190;2022-12-13T08:07:59;-7.20;99.90
11511;DHT22;5812;48.864;9.190;2022-12-13T08:10:26;-7.10;99.90
11511;DHT22;5812;48.864;9.190;2022-12-13T08:12:51;-7.00;99.90
11511;DHT22;5812;48.864;9.190;2022-12-13T08:15:17;-6.90;99.90
11511;DHT22;5812;48.864;9.190;2022-12-13T08:17:43;-6.80;99.90
11511;DHT22;5812;48.864;9.190;2022-12-13T08:20:09;-6.80;99.90
11511;DHT22;5812;48.864;9.190;2022-12-13T08:22:35;-6.70;61.30
11511;DHT22;5812;48.864;9.190;2022-12-13T08:25:00;-6.60;63.50
11511;DHT22;5812;48.864;9.190;2022-12-13T08:27:27;-6.50;53.00
11511;DHT22;5812;48.864;9.190;2022-12-13T08:29:52;-6.50;30.10
11511;DHT22;5812;48.864;9.190;2022-12-13T08:32:18;-6.40;18.00
11511;DHT22;5812;48.864;9.190;2022-12-13T08:34:44;-6.30;15.40
11511;DHT22;5812;48.864;9.190;2022-12-13T08:37:10;-6.30;13.40
11511;DHT22;5812;48.864;9.190;2022-12-13T08:39:37;-6.20;5.10
11511;DHT22;5812;48.864;9.190;2022-12-13T08:42:05;-6.20;1.80
11511;DHT22;5812;48.864;9.190;2022-12-13T08:44:31;-6.20;1.00
11511;DHT22;5812;48.864;9.190;2022-12-13T08:46:56;-6.20;1.00
11511;DHT22;5812;48.864;9.190;2022-12-13T08:49:22;-6.20;1.00
11511;DHT22;5812;48.864;9.190;2022-12-13T08:51:47;-6.10;1.00
11511;DHT22;5812;48.864;9.190;2022-12-13T08:54:13;-6.00;1.00
11511;DHT22;5812;48.864;9.190;2022-12-13T08:56:39;-6.00;1.00
11511;DHT22;5812;48.864;9.190;2022-12-13T08:59:04;-5.90;1.00
11511;DHT22;5812;48.864;9.190;2022-12-13T09:01:30;-5.90;1.00
11511;DHT22;5812;48.864;9.190;2022-12-13T09:03:56;-5.70;1.00
11511;DHT22;5812;48.864;9.190;2022-12-13T09:06:21;-5.70;1.00
11511;DHT22;5812;48.864;9.190;2022-12-13T09:08:47;-5.60;1.00
11511;DHT22;5812;48.864;9.190;2022-12-13T09:11:12;-5.50;1.00
11511;DHT22;5812;48.864;9.190;2022-12-13T09:13:39;-5.40;1.00
11511;DHT22;5812;48.864;9.190;2022-12-13T09:16:06;-5.20;1.00
11511;DHT22;5812;48.864;9.190;2022-12-13T09:18:32;-5.00;1.00
11511;DHT22;5812;48.864;9.190;2022-12-13T09:20:58;-4.80;1.00
11511;DHT22;5812;48.864;9.190;2022-12-13T09:23:24;-4.70;99.90
11511;DHT22;5812;48.864;9.190;2022-12-13T09:25:56;-4.50;99.90
11511;DHT22;5812;48.864;9.190;2022-12-13T09:28:22;-4.20;99.90
11511;DHT22;5812;48.864;9.190;2022-12-13T09:30:48;-4.00;99.90
11511;DHT22;5812;48.864;9.190;2022-12-13T09:33:14;-4.00;99.90
11511;DHT22;5812;48.864;9.190;2022-12-13T09:35:40;-3.80;99.90
11511;DHT22;5812;48.864;9.190;2022-12-13T09:38:06;-3.80;99.90
11511;DHT22;5812;48.864;9.190;2022-12-13T09:40:32;-3.60;99.90
11511;DHT22;5812;48.864;9.190;2022-12-13T09:43:00;-3.50;99.90
11511;DHT22;5812;48.864;9.190;2022-12-13T09:45:28;-3.50;99.90
11511;DHT22;5812;48.864;9.190;2022-12-13T09:47:54;-3.40;99.90
11511;DHT22;5812;48.864;9.190;2022-12-13T09:50:25;-3.30;99.90
11511;DHT22;5812;48.864;9.190;2022-12-13T09:52:51;-3.40;99.90
11511;DHT22;5812;48.864;9.190;2022-12-13T09:55:25;-3.30;99.90
11511;DHT22;5812;48.864;9.190;2022-12-13T09:57:54;-3.20;99.90
11511;DHT22;5812;48.864;9.190;2022-12-13T10:00:24;-3.10;99.90
11511;DHT22;5812;48.864;9.190;2022-12-13T10:02:55;-3.10;99.90
11511;DHT22;5812;48.864;9.190;2022-12-13T10:05:37;-3.10;99.90
11511;DHT22;5812;48.864;9.190;2022-12-13T10:08:23;-3.10;99.90
11511;DHT22;5812;48.864;9.190;2022-12-13T10:10:52;-3.10;99.90
11511;DHT22;5812;48.864;9.190;2022-12-13T10:13:40;-3.00;99.90
11511;DHT22;5812;48.864;9.190;2022-12-13T10:16:17;-3.00;99.90
11511;DHT22;5812;48.864;9.190;2022-12-13T10:18:44;-3.00;99.90
11511;DHT22;5812;48.864;9.190;2022-12-13T10:21:54;-3.10;99.90
11511;DHT22;5812;48.864;9.190;2022-12-13T10:24:28;-3.00;99.90
11511;DHT22;5812;48.864;9.190;2022-12-13T10:27:33;-3.00;99.90
11511;DHT22;5812;48.864;9.190;2022-12-13T10:30:06;-3.00;94.90
11511;DHT22;5812;48.864;9.190;2022-12-13T10:32:42;-2.90;99.90
11511;DHT22;5812;48.864;9.190;2022-12-13T10:35:26;-2.70;99.90
11511;DHT22;5812;48.864;9.190;2022-12-13T10:37:53;-2.70;99.90
11511;DHT22;5812;48.864;9.190;2022-12-13T10:40:33;-2.80;66.30
11511;DHT22;5812;48.864;9.190;2022-12-13T10:43:18;-2.80;99.90
11511;DHT22;5812;48.864;9.190;2022-12-13T10:46:00;-2.70;99.90
11511;DHT22;5812;48.864;9.190;2022-12-13T10:48:40;-2.40;99.90
11511;DHT22;5812;48.864;9.190;2022-12-13T10:51:13;-2.30;76.50
11511;DHT22;5812;48.864;9.190;2022-12-13T10:53:59;-2.20;18.70
11511;DHT22;5812;48.864;9.190;2022-12-13T10:56:36;-2.20;13.40
11511;DHT22;5812;48.864;9.190;2022-12-13T11:01:45;-2.00;1.00
11511;DHT22;5812;48.864;9.190;2022-12-13T11:04:26;-2.10;1.00
11511;DHT22;5812;48.864;9.190;2022-12-13T11:06:55;-2.00;1.00
11511;DHT22;5812;48.864;9.190;2022-12-13T11:09:26;-2.00;1.00
11511;DHT22;5812;48.864;9.190;2022-12-13T11:11:54;-2.00;1.00
11511;DHT22;5812;48.864;9.190;2022-12-13T11:14:23;-1.80;1.00
11511;DHT22;5812;48.864;9.190;2022-12-13T11:16:59;-1.70;1.00
11511;DHT22;5812;48.864;9.190;2022-12-13T11:19:39;-1.60;1.00
11511;DHT22;5812;48.864;9.190;2022-12-13T11:22:06;-1.50;1.00
11511;DHT22;5812;48.864;9.190;2022-12-13T11:24:36;-1.30;1.00
11511;DHT22;5812;48.864;9.190;2022-12-13T11:33:01;-1.10;1.00
11511;DHT22;5812;48.864;9.190;2022-12-13T11:38:31;-0.90;1.00
11511;DHT22;5812;48.864;9.190;2022-12-13T11:41:18;-0.70;1.00
11511;DHT22;5812;48.864;9.190;2022-12-13T11:43:58;-0.70;1.00
11511;DHT22;5812;48.864;9.190;2022-12-13T11:46:40;-0.60;1.00
11511;DHT22;5812;48.864;9.190;2022-12-13T11:49:37;-0.50;1.00
11511;DHT22;5812;48.864;9.190;2022-12-13T11:52:13;-0.50;1.00
11511;DHT22;5812;48.864;9.190;2022-12-13T12:02:48;-0.40;99.90
11511;DHT22;5812;48.864;9.190;2022-12-13T12:05:36;-0.20;99.90
11511;DHT22;5812;48.864;9.190;2022-12-13T12:08:11;-0.40;99.90
11511;DHT22;5812;48.864;9.190;2022-12-13T12:10:43;-0.20;99.90
11511;DHT22;5812;48.864;9.190;2022-12-13T12:13:20;0.00;99.90
11511;DHT22;5812;48.864;9.190;2022-12-13T12:15:55;0.00;99.90
11511;DHT22;5812;48.864;9.190;2022-12-13T12:18:22;0.20;99.90
11511;DHT22;5812;48.864;9.190;2022-12-13T12:20:55;0.10;99.90
11511;DHT22;5812;48.864;9.190;2022-12-13T12:26:17;0.50;99.90
11511;DHT22;5812;48.864;9.190;2022-12-13T12:31:55;1.10;99.90
11511;DHT22;5812;48.864;9.190;2022-12-13T12:43:10;0.30;99.90
11511;DHT22;5812;48.864;9.190;2022-12-13T12:49:02;0.30;99.90
11511;DHT22;5812;48.864;9.190;2022-12-13T12:51:50;0.10;99.90
11511;DHT22;5812;48.864;9.190;2022-12-13T12:57:25;0.10;99.90
11511;DHT22;5812;48.864;9.190;2022-12-13T13:05:16;0.10;99.90
11511;DHT22;5812;48.864;9.190;2022-12-13T13:07:53;0.30;99.90
11511;DHT22;5812;48.864;9.190;2022-12-13T13:10:21;0.70;1.00
11511;DHT22;5812;48.864;9.190;2022-12-13T13:12:46;0.80;99.90
11511;DHT22;5812;48.864;9.190;2022-12-13T13:17:59;1.20;99.90
11511;DHT22;5812;48.864;9.190;2022-12-13T13:20:28;1.30;99.90
11511;DHT22;5812;48.864;9.190;2022-12-13T13:22:55;1.20;99.90
11511;DHT22;5812;48.864;9.190;2022-12-13T13:27:51;0.60;99.90
11511;DHT22;5812;48.864;9.190;2022-12-13T13:30:25;0.40;99.90
11511;DHT22;5812;48.864;9.190;2022-12-13T13:32:52;0.50;99.90
11511;DHT22;5812;48.864;9.190;2022-12-13T13:40:32;-0.10;99.90
11511;DHT22;5812;48.864;9.190;2022-12-13T14:05:39;-0.50;1.00
11511;DHT22;5812;48.864;9.190;2022-12-13T14:11:15;-0.50;1.00
11511;DHT22;5812;48.864;9.190;2022-12-13T14:19:51;-0.70;1.00
11511;DHT22;5812;48.864;9.190;2022-12-13T14:22:45;-0.60;1.00
11511;DHT22;5812;48.864;9.190;2022-12-13T14:25:32;-0.70;1.00
11511;DHT22;5812;48.864;9.190;2022-12-13T14:30:48;-0.70;1.00
11511;DHT22;5812;48.864;9.190;2022-12-13T14:33:22;-0.90;1.00
11511;DHT22;5812;48.864;9.190;2022-12-13T14:35:57;-0.90;1.00
11511;DHT22;5812;48.864;9.190;2022-12-13T14:38:25;-0.90;1.00
11511;DHT22;5812;48.864;9.190;2022-12-13T14:40:56;-0.90;1.00
11511;DHT22;5812;48.864;9.190;2022-12-13T14:43:28;-1.00;1.00
11511;DHT22;5812;48.864;9.190;2022-12-13T14:46:02;-1.00;1.00
11511;DHT22;5812;48.864;9.190;2022-12-13T14:48:31;-1.00;1.00
11511;DHT22;5812;48.864;9.190;2022-12-13T14:50:58;-1.10;1.00
11511;DHT22;5812;48.864;9.190;2022-12-13T14:53:32;-1.20;1.00
11511;DHT22;5812;48.864;9.190;2022-12-13T14:56:13;-1.20;1.00
11511;DHT22;5812;48.864;9.190;2022-12-13T14:58:50;-1.10;1.00
11511;DHT22;5812;48.864;9.190;2022-12-13T15:01:31;-1.10;1.00
11511;DHT22;5812;48.864;9.190;2022-12-13T15:06:46;-1.10;1.00
11511;DHT22;5812;48.864;9.190;2022-12-13T15:09:13;-1.30;1.00
11511;DHT22;5812;48.864;9.190;2022-12-13T15:11:41;-1.30;1.00
11511;DHT22;5812;48.864;9.190;2022-12-13T15:14:16;-1.30;1.00
11511;DHT22;5812;48.864;9.190;2022-12-13T15:16:47;-1.40;1.00
11511;DHT22;5812;48.864;9.190;2022-12-13T15:19:18;-1.40;1.00
11511;DHT22;5812;48.864;9.190;2022-12-13T15:21:59;-1.40;1.00
11511;DHT22;5812;48.864;9.190;2022-12-13T15:24:28;-1.50;1.00
11511;DHT22;5812;48.864;9.190;2022-12-13T15:26:56;-1.50;1.00
11511;DHT22;5812;48.864;9.190;2022-12-13T15:29:27;-1.60;1.00
11511;DHT22;5812;48.864;9.190;2022-12-13T15:31:54;-1.70;1.00
11511;DHT22;5812;48.864;9.190;2022-12-13T15:34:33;-1.70;1.00
11511;DHT22;5812;48.864;9.190;2022-12-13T15:37:02;-1.70;1.00
11511;DHT22;5812;48.864;9.190;2022-12-13T15:39:33;-1.70;1.00
11511;DHT22;5812;48.864;9.190;2022-12-13T15:41:59;-1.80;1.00
11511;DHT22;5812;48.864;9.190;2022-12-13T15:44:28;-1.70;1.00
11511;DHT22;5812;48.864;9.190;2022-12-13T15:47:10;-1.80;1.00
11511;DHT22;5812;48.864;9.190;2022-12-13T15:49:43;-1.90;1.00
11511;DHT22;5812;48.864;9.190;2022-12-13T15:54:38;-1.90;1.00
11511;DHT22;5812;48.864;9.190;2022-12-13T15:59:44;-2.00;1.00
11511;DHT22;5812;48.864;9.190;2022-12-13T16:04:39;-2.10;1.00
11511;DHT22;5812;48.864;9.190;2022-12-13T16:07:05;-2.20;1.00
11511;DHT22;5812;48.864;9.190;2022-12-13T16:09:33;-2.20;1.00
11511;DHT22;5812;48.864;9.190;2022-12-13T16:12:03;-2.20;1.00
11511;DHT22;5812;48.864;9.190;2022-12-13T16:17:09;-2.20;2.70
11511;DHT22;5812;48.864;9.190;2022-12-13T16:19:36;-2.20;1.00
11511;DHT22;5812;48.864;9.190;2022-12-13T16:22:01;-2.20;1.00
11511;DHT22;5812;48.864;9.190;2022-12-13T16:24:27;-2.30;1.00
11511;DHT22;5812;48.864;9.190;2022-12-13T16:26:52;-2.30;6.40
11511;DHT22;5812;48.864;9.190;2022-12-13T16:29:18;-2.30;6.00
11511;DHT22;5812;48.864;9.190;2022-12-13T16:31:44;-2.40;1.40
11511;DHT22;5812;48.864;9.190;2022-12-13T16:34:11;-2.40;12.50
11511;DHT22;5812;48.864;9.190;2022-12-13T16:36:37;-2.40;27.20
11511;DHT22;5812;48.864;9.190;2022-12-13T16:39:04;-2.40;9.10
11511;DHT22;5812;48.864;9.190;2022-12-13T16:41:33;-2.40;1.00
11511;DHT22;5812;48.864;9.190;2022-12-13T16:44:03;-2.40;13.70
11511;DHT22;5812;48.864;9.190;2022-12-13T16:46:30;-2.50;5.90
11511;DHT22;5812;48.864;9.190;2022-12-13T16:48:56;-2.50;1.00
11511;DHT22;5812;48.864;9.190;2022-12-13T16:51:22;-2.50;1.90
11511;DHT22;5812;48.864;9.190;2022-12-13T16:53:48;-2.50;13.10
11511;DHT22;5812;48.864;9.190;2022-12-13T16:56:14;-2.50;27.60
11511;DHT22;5812;48.864;9.190;2022-12-13T16:58:46;-2.60;21.50
11511;DHT22;5812;48.864;9.190;2022-12-13T17:01:14;-2.60;40.20
11511;DHT22;5812;48.864;9.190;2022-12-13T17:03:40;-2.70;30.00
11511;DHT22;5812;48.864;9.190;2022-12-13T17:06:08;-2.70;38.80
11511;DHT22;5812;48.864;9.190;2022-12-13T17:08:34;-2.80;56.10
11511;DHT22;5812;48.864;9.190;2022-12-13T17:11:00;-2.80;51.20
11511;DHT22;5812;48.864;9.190;2022-12-13T17:13:26;-2.90;21.60
11511;DHT22;5812;48.864;9.190;2022-12-13T17:15:52;-2.90;22.50
11511;DHT22;5812;48.864;9.190;2022-12-13T17:18:18;-2.90;21.50
11511;DHT22;5812;48.864;9.190;2022-12-13T17:20:45;-2.90;39.20
11511;DHT22;5812;48.864;9.190;2022-12-13T17:23:11;-2.90;16.10
11511;DHT22;5812;48.864;9.190;2022-12-13T17:25:37;-2.90;24.50
11511;DHT22;5812;48.864;9.190;2022-12-13T17:28:03;-2.90;18.90
11511;DHT22;5812;48.864;9.190;2022-12-13T17:30:29;-2.90;34.10
11511;DHT22;5812;48.864;9.190;2022-12-13T17:32:59;-2.90;16.00
11511;DHT22;5812;48.864;9.190;2022-12-13T17:35:25;-2.90;15.30
11511;DHT22;5812;48.864;9.190;2022-12-13T17:37:52;-2.80;1.00
11511;DHT22;5812;48.864;9.190;2022-12-13T17:40:18;-2.90;6.60
11511;DHT22;5812;48.864;9.190;2022-12-13T17:42:43;-2.90;13.00
11511;DHT22;5812;48.864;9.190;2022-12-13T17:45:10;-2.90;17.60
11511;DHT22;5812;48.864;9.190;2022-12-13T17:47:36;-2.90;1.00
11511;DHT22;5812;48.864;9.190;2022-12-13T17:50:04;-2.90;1.00
11511;DHT22;5812;48.864;9.190;2022-12-13T17:52:29;-2.90;1.00
11511;DHT22;5812;48.864;9.190;2022-12-13T17:54:55;-2.90;1.00
11511;DHT22;5812;48.864;9.190;2022-12-13T17:57:21;-2.90;1.00
11511;DHT22;5812;48.864;9.190;2022-12-13T17:59:46;-2.90;1.00
11511;DHT22;5812;48.864;9.190;2022-12-13T18:02:13;-2.90;1.00
11511;DHT22;5812;48.864;9.190;2022-12-13T18:04:39;-2.90;1.00
11511;DHT22;5812;48.864;9.190;2022-12-13T18:07:05;-2.90;1.00